Time;durP1;ratioP1;P1;durP2;ratioP2;P2;SDS_P1;SDS_P2;PMS_P1;PMS_P2;Temp;Humidity;BMP_temperature;BMP_pressure;BME280_temperature;BME280_humidity;BME280_pressure;Samples;Min_cycle;Max_cycle;Signal;HPM_P1;HPM_P2
2023/08/28 00:02:02;;;;;;;;;;;;;;;25.71;55.11;99445.88;5100783;28;19987;-65
2023/08/28 00:04:27;;;;;;;;;;;;;;;25.69;55.25;99442.63;5099946;28;19977;-65
2023/08/28 00:06:52;;;;;;;;;;;;;;;25.61;55.56;99446.63;5099938;28;20108;-65
2023/08/28 00:09:18;;;;;;;;;;;;;;;25.48;55.93;99438.19;5100050;28;19998;-65
2023/08/28 00:11:44;;;;;;;;;;;;;;;25.44;55.55;99441.44;5100201;28;19915;-65
2023/08/28 00:14:09;;;;;;;;;;;;;;;25.40;55.75;99439.53;5099778;28;19986;-65
2023/08/28 00:16:35;;;;;;;;;;;;;;;25.27;55.53;99440.03;5099583;28;19922;-65
2023/08/28 00:19:00;;;;;;;;;;;;;;;25.28;55.66;99439.75;5100441;28;19969;-64
2023/08/28 00:21:25;;;;;;;;;;;;;;;25.27;55.83;99431.91;5100270;28;20163;-65
2023/08/28 00:23:51;;;;;;;;;;;;;;;25.33;55.79;99434.34;5100437;28;20014;-65
2023/08/28 00:26:16;;;;;;;;;;;;;;;25.11;56.60;99433.72;5099729;28;19924;-65
2023/08/28 00:28:42;;;;;;;;;;;;;;;24.92;57.30;99432.50;5099702;28;20097;-65
2023/08/28 00:31:07;;;;;;;;;;;;;;;24.95;57.77;99430.09;5098732;28;19924;-65
2023/08/28 00:33:32;;;;;;;;;;;;;;;25.03;57.36;99434.25;5099409;28;20002;-64
2023/08/28 00:35:58;;;;;;;;;;;;;;;25.12;57.25;99429.94;5099491;28;19955;-65
2023/08/28 00:38:23;;;;;;;;;;;;;;;25.10;57.24;99435.63;5099958;28;20193;-64
2023/08/28 00:40:48;;;;;;;;;;;;;;;25.21;56.58;99425.66;5099635;28;19923;-65
2023/08/28 00:43:14;;;;;;;;;;;;;;;25.18;56.76;99419.94;5099529;28;19915;-65
2023/08/28 00:45:41;;;;;;;;;;;;;;;25.20;56.42;99426.72;5099410;28;19924;-65
2023/08/28 00:48:06;;;;;;;;;;;;;;;25.08;56.66;99428.84;5099460;28;20098;-65
2023/08/28 00:50:32;;;;;;;;;;;;;;;25.00;56.49;99422.03;5099531;28;19969;-65
2023/08/28 00:52:57;;;;;;;;;;;;;;;25.04;56.51;99412.31;5099626;28;19973;-65
2023/08/28 00:55:23;;;;;;;;;;;;;;;24.98;56.96;99415.25;5099595;28;19991;-65
2023/08/28 00:57:48;;;;;;;;;;;;;;;25.03;56.99;99418.00;5099512;28;19916;-65
2023/08/28 01:00:15;;;;;;;;;;;;;;;24.95;56.83;99423.84;5099086;28;19962;-64
2023/08/28 01:02:40;;;;;;;;;;;;;;;24.92;56.32;99427.91;5099456;28;20138;-65
2023/08/28 01:05:06;;;;;;;;;;;;;;;24.92;57.50;99421.66;5098814;28;20336;-65
2023/08/28 01:07:36;;;;;;;;;;;;;;;24.77;57.61;99419.69;5099111;28;19975;-65
2023/08/28 01:10:09;;;;;;;;;;;;;;;24.76;56.96;99416.19;5098992;28;19947;-65
2023/08/28 01:12:35;;;;;;;;;;;;;;;24.83;56.40;99418.66;5098753;28;20236;-65
2023/08/28 01:15:00;;;;;;;;;;;;;;;24.89;56.51;99414.88;5098829;28;19952;-65
2023/08/28 01:17:26;;;;;;;;;;;;;;;24.92;56.51;99413.53;5099022;28;19915;-65
2023/08/28 01:19:52;;;;;;;;;;;;;;;24.82;56.32;99408.88;5098807;28;20281;-65
2023/08/28 01:22:22;;;;;;;;;;;;;;;24.50;56.68;99406.28;5099422;28;19916;-64
2023/08/28 01:24:51;;;;;;;;;;;;;;;24.38;56.72;99402.94;5098920;28;19971;-65
2023/08/28 01:27:18;;;;;;;;;;;;;;;24.18;57.29;99388.16;5098886;28;20237;-65
2023/08/28 01:29:43;;;;;;;;;;;;;;;24.27;57.65;99398.53;5099075;28;19923;-65
2023/08/28 01:32:09;;;;;;;;;;;;;;;24.32;57.47;99401.28;5099095;28;19954;-65
2023/08/28 01:34:34;;;;;;;;;;;;;;;24.27;58.41;99406.66;5098664;28;19991;-65
2023/08/28 01:37:08;;;;;;;;;;;;;;;24.05;60.11;99395.91;5098808;28;19919;-65
2023/08/28 01:39:37;;;;;;;;;;;;;;;24.02;59.95;99391.84;5099076;28;19931;-65
2023/08/28 01:42:03;;;;;;;;;;;;;;;24.14;59.42;99400.59;5100760;28;19916;-65
2023/08/28 01:44:30;;;;;;;;;;;;;;;24.20;58.44;99394.13;5103306;28;19999;-65
2023/08/28 01:46:56;;;;;;;;;;;;;;;24.18;59.51;99399.00;5102941;28;19953;-65
2023/08/28 01:49:26;;;;;;;;;;;;;;;24.17;59.56;99399.25;5102764;28;19916;-65
2023/08/28 01:51:51;;;;;;;;;;;;;;;24.14;59.26;99387.06;5102727;28;20205;-65
2023/08/28 01:54:17;;;;;;;;;;;;;;;24.18;60.85;99403.59;5103098;28;19916;-64
2023/08/28 01:56:42;;;;;;;;;;;;;;;24.24;61.61;99399.03;5102846;28;19920;-64
2023/08/28 01:59:07;;;;;;;;;;;;;;;24.16;61.68;99395.72;5103148;28;20251;-65
2023/08/28 02:01:32;;;;;;;;;;;;;;;24.23;61.68;99397.41;5102551;28;19923;-65
2023/08/28 02:03:58;;;;;;;;;;;;;;;24.40;61.40;99387.25;5102409;28;19915;-65
2023/08/28 02:06:23;;;;;;;;;;;;;;;24.36;61.79;99389.69;5101753;28;19955;-65
2023/08/28 02:08:49;;;;;;;;;;;;;;;24.49;61.38;99378.41;5102465;28;20219;-65
2023/08/28 02:11:14;;;;;;;;;;;;;;;24.52;61.06;99385.19;5102951;28;19923;-64
2023/08/28 02:13:40;;;;;;;;;;;;;;;24.51;61.01;99378.13;5102751;28;20109;-64
2023/08/28 02:16:05;;;;;;;;;;;;;;;24.55;60.71;99375.72;5102349;28;19931;-65
2023/08/28 02:18:31;;;;;;;;;;;;;;;24.57;60.57;99373.56;5102353;28;19915;-66
2023/08/28 02:20:56;;;;;;;;;;;;;;;24.58;60.25;99372.50;5102485;28;19924;-64
2023/08/28 02:23:22;;;;;;;;;;;;;;;24.55;60.57;99383.84;5102637;28;19942;-65
2023/08/28 02:25:48;;;;;;;;;;;;;;;24.56;59.69;99380.88;5102195;28;19931;-65
2023/08/28 02:28:13;;;;;;;;;;;;;;;24.48;58.71;99382.19;5102284;28;19983;-65
2023/08/28 02:30:39;;;;;;;;;;;;;;;24.49;59.81;99383.00;5101794;28;19940;-65
2023/08/28 02:33:04;;;;;;;;;;;;;;;24.45;59.41;99379.19;5102537;28;19923;-65
2023/08/28 02:35:30;;;;;;;;;;;;;;;24.39;58.78;99374.81;5102064;28;19985;-66
2023/08/28 02:37:55;;;;;;;;;;;;;;;24.30;59.08;99385.31;5101362;28;19926;-65
2023/08/28 02:40:20;;;;;;;;;;;;;;;24.15;59.74;99385.16;5100969;28;19923;-65
2023/08/28 02:42:45;;;;;;;;;;;;;;;24.12;59.41;99383.81;5100768;28;19916;-65
2023/08/28 02:45:11;;;;;;;;;;;;;;;24.11;59.56;99376.75;5100854;28;19924;-65
2023/08/28 02:47:36;;;;;;;;;;;;;;;24.04;59.90;99372.66;5100794;28;20006;-65
2023/08/28 02:50:02;;;;;;;;;;;;;;;24.06;59.73;99367.78;5100655;28;19923;-65
2023/08/28 02:52:27;;;;;;;;;;;;;;;24.04;61.99;99373.47;5100456;28;19953;-65
2023/08/28 02:54:53;;;;;;;;;;;;;;;24.03;62.40;99377.25;5100902;28;19959;-64
2023/08/28 02:57:18;;;;;;;;;;;;;;;23.91;63.25;99373.06;5100784;28;19916;-65
2023/08/28 02:59:43;;;;;;;;;;;;;;;23.99;63.41;99375.31;5100253;28;20324;-66
2023/08/28 03:02:09;;;;;;;;;;;;;;;24.01;63.16;99379.38;5100045;28;19969;-65
2023/08/28 03:04:35;;;;;;;;;;;;;;;23.90;63.37;99383.06;5099949;28;20247;-65
2023/08/28 03:07:00;;;;;;;;;;;;;;;23.72;64.28;99381.53;5100300;28;20198;-65
2023/08/28 03:09:26;;;;;;;;;;;;;;;23.59;64.94;99381.16;5099833;28;19924;-65
2023/08/28 03:11:51;;;;;;;;;;;;;;;23.42;65.78;99373.94;5100089;28;19916;-65
2023/08/28 03:14:16;;;;;;;;;;;;;;;23.57;65.13;99370.59;5100304;28;19978;-64
2023/08/28 03:16:41;;;;;;;;;;;;;;;23.64;64.71;99371.19;5100051;28;19920;-65
2023/08/28 03:19:07;;;;;;;;;;;;;;;23.70;64.38;99374.75;5100259;28;19916;-65
2023/08/28 03:21:33;;;;;;;;;;;;;;;23.77;63.95;99370.78;5100365;28;19920;-65
2023/08/28 03:23:58;;;;;;;;;;;;;;;23.76;63.27;99373.75;5099844;28;20206;-64
2023/08/28 03:26:25;;;;;;;;;;;;;;;23.78;63.53;99372.41;5099491;28;19927;-65
2023/08/28 03:28:50;;;;;;;;;;;;;;;23.67;63.87;99375.28;5100430;28;20202;-65
2023/08/28 03:31:16;;;;;;;;;;;;;;;23.75;64.13;99381.03;5099918;28;19931;-65
2023/08/28 03:33:41;;;;;;;;;;;;;;;23.79;63.90;99374.03;5100004;28;19951;-65
2023/08/28 03:36:07;;;;;;;;;;;;;;;23.78;63.72;99382.41;5099478;28;19939;-65
2023/08/28 03:38:32;;;;;;;;;;;;;;;23.59;63.96;99368.44;5060035;28;1155726;-66
2023/08/28 03:40:57;;;;;;;;;;;;;;;23.58;63.92;99374.13;5101480;28;19919;-65
2023/08/28 03:43:22;;;;;;;;;;;;;;;23.40;64.54;99367.97;5100977;28;20226;-66
2023/08/28 03:45:48;;;;;;;;;;;;;;;23.31;65.15;99361.38;5100826;28;19916;-65
2023/08/28 03:48:13;;;;;;;;;;;;;;;23.50;64.63;99369.94;5100689;28;19946;-65
2023/08/28 03:50:38;;;;;;;;;;;;;;;23.55;64.19;99372.75;5100800;28;20120;-65
2023/08/28 03:53:04;;;;;;;;;;;;;;;23.62;63.71;99364.41;5100688;28;19946;-65
2023/08/28 03:55:29;;;;;;;;;;;;;;;23.59;63.02;99365.75;5100200;28;19916;-65
2023/08/28 03:57:55;;;;;;;;;;;;;;;23.34;63.75;99366.28;5100551;28;19924;-65
2023/08/28 04:00:20;;;;;;;;;;;;;;;23.18;63.79;99372.59;5100426;28;19916;-65
2023/08/28 04:02:46;;;;;;;;;;;;;;;23.18;64.09;99378.00;5100657;28;19942;-66
2023/08/28 04:05:12;;;;;;;;;;;;;;;23.12;63.83;99368.19;5098812;28;19924;-64
2023/08/28 04:07:37;;;;;;;;;;;;;;;22.71;65.19;99383.03;5100064;28;19935;-65
2023/08/28 04:10:02;;;;;;;;;;;;;;;22.52;66.34;99385.19;5099810;28;19986;-64
2023/08/28 04:12:28;;;;;;;;;;;;;;;22.62;65.65;99391.53;5099166;28;19924;-65
2023/08/28 04:14:53;;;;;;;;;;;;;;;22.78;65.63;99391.75;5099341;28;19915;-64
2023/08/28 04:17:19;;;;;;;;;;;;;;;22.88;65.37;99395.44;5082004;28;19924;-66
2023/08/28 04:19:45;;;;;;;;;;;;;;;22.97;64.92;99392.31;5099950;28;19916;-65
2023/08/28 04:22:11;;;;;;;;;;;;;;;23.07;64.41;99395.97;5100129;28;19961;-65
2023/08/28 04:24:36;;;;;;;;;;;;;;;23.12;64.29;99395.22;5099669;28;19919;-65
2023/08/28 04:27:01;;;;;;;;;;;;;;;23.10;64.52;99392.75;5099969;28;20467;-66
2023/08/28 04:29:26;;;;;;;;;;;;;;;23.12;64.52;99396.03;5099494;28;19920;-65
2023/08/28 04:31:52;;;;;;;;;;;;;;;23.11;64.59;99390.88;5099825;28;20148;-65
2023/08/28 04:34:17;;;;;;;;;;;;;;;23.13;64.92;99394.94;5099940;28;19983;-65
2023/08/28 04:36:43;;;;;;;;;;;;;;;23.17;64.85;99392.56;5099688;28;19924;-65
2023/08/28 04:39:08;;;;;;;;;;;;;;;23.24;64.86;99385.91;5099908;28;19923;-65
2023/08/28 04:41:33;;;;;;;;;;;;;;;23.26;65.37;99385.66;5099422;28;19991;-65
2023/08/28 04:43:58;;;;;;;;;;;;;;;23.19;66.44;99385.84;5099312;28;19920;-65
2023/08/28 04:46:25;;;;;;;;;;;;;;;23.12;67.44;99390.63;5099512;28;19928;-64
2023/08/28 04:48:50;;;;;;;;;;;;;;;23.16;68.09;99382.84;5099452;28;19920;-65
2023/08/28 04:51:15;;;;;;;;;;;;;;;23.30;67.92;99389.47;5099392;28;19926;-65
2023/08/28 04:53:40;;;;;;;;;;;;;;;23.35;67.57;99386.81;5098966;28;19927;-65
2023/08/28 04:56:06;;;;;;;;;;;;;;;23.55;66.91;99391.66;5099947;28;20148;-66
2023/08/28 04:58:31;;;;;;;;;;;;;;;23.57;67.21;99384.09;5099781;28;19919;-65
2023/08/28 05:00:56;;;;;;;;;;;;;;;23.77;66.61;99383.47;5099013;28;20224;-65
2023/08/28 05:03:22;;;;;;;;;;;;;;;23.93;66.05;99384.44;5099405;28;20206;-65
2023/08/28 05:05:47;;;;;;;;;;;;;;;24.14;64.99;99384.34;5099051;28;19931;-65
2023/08/28 05:08:14;;;;;;;;;;;;;;;24.22;63.65;99387.66;5099542;28;19977;-65
2023/08/28 05:10:39;;;;;;;;;;;;;;;24.45;62.71;99385.41;5099013;28;20233;-66
2023/08/28 05:13:05;;;;;;;;;;;;;;;24.63;60.68;99386.06;5099567;28;19920;-65
2023/08/28 05:15:30;;;;;;;;;;;;;;;24.83;60.25;99389.66;5099176;28;20343;-65
2023/08/28 05:17:55;;;;;;;;;;;;;;;25.10;59.16;99381.44;5099550;28;19920;-65
2023/08/28 05:20:20;;;;;;;;;;;;;;;25.37;58.56;99383.97;5098973;28;19927;-65
2023/08/28 05:22:47;;;;;;;;;;;;;;;25.39;58.77;99381.81;5099046;28;19927;-65
2023/08/28 05:25:12;;;;;;;;;;;;;;;25.49;57.67;99383.72;5099175;28;20201;-65
2023/08/28 05:27:37;;;;;;;;;;;;;;;25.61;57.02;99380.75;5099125;28;20025;-65
2023/08/28 05:30:03;;;;;;;;;;;;;;;25.70;57.17;99379.16;5099321;28;19920;-65
2023/08/28 05:32:28;;;;;;;;;;;;;;;25.86;55.76;99380.00;5098998;28;20125;-65
2023/08/28 05:34:57;;;;;;;;;;;;;;;25.89;54.99;99376.72;5098418;28;20017;-65
2023/08/28 05:37:23;;;;;;;;;;;;;;;26.06;55.60;99385.44;5099039;28;20164;-65
2023/08/28 05:39:48;;;;;;;;;;;;;;;26.28;54.63;99385.97;5099133;28;20266;-66
2023/08/28 05:42:13;;;;;;;;;;;;;;;26.33;54.60;99388.69;5098427;28;20029;-65
2023/08/28 05:44:39;;;;;;;;;;;;;;;26.47;54.14;99388.13;5098161;28;19927;-65
2023/08/28 05:47:04;;;;;;;;;;;;;;;26.60;53.60;99395.72;5098712;28;19920;-65
2023/08/28 05:49:29;;;;;;;;;;;;;;;26.81;52.99;99396.47;5098624;28;19920;-65
2023/08/28 05:51:54;;;;;;;;;;;;;;;27.01;51.63;99390.97;5098609;28;19920;-66
2023/08/28 05:54:20;;;;;;;;;;;;;;;27.14;51.27;99392.31;5098829;28;19979;-65
2023/08/28 05:56:45;;;;;;;;;;;;;;;27.09;51.95;99395.06;5098394;28;19920;-65
2023/08/28 05:59:10;;;;;;;;;;;;;;;27.19;51.75;99395.81;5099225;28;20134;-65
2023/08/28 06:01:35;;;;;;;;;;;;;;;27.38;51.44;99390.56;5098535;28;19947;-65
2023/08/28 06:04:02;;;;;;;;;;;;;;;27.57;50.30;99391.53;5098013;28;20113;-66
2023/08/28 06:06:28;;;;;;;;;;;;;;;27.76;49.13;99391.69;5098003;28;19927;-65
2023/08/28 06:08:53;;;;;;;;;;;;;;;27.81;48.31;99396.28;5098776;28;19920;-65
2023/08/28 06:11:18;;;;;;;;;;;;;;;27.83;48.67;99391.38;5098792;28;19920;-65
2023/08/28 06:13:43;;;;;;;;;;;;;;;27.79;48.29;99395.75;5098491;28;19919;-65
2023/08/28 06:16:09;;;;;;;;;;;;;;;27.99;47.54;99398.31;5098288;28;20091;-65
2023/08/28 06:18:34;;;;;;;;;;;;;;;28.13;46.90;99395.78;5098633;28;19920;-65
2023/08/28 06:20:59;;;;;;;;;;;;;;;28.26;46.82;99398.69;5098631;28;19987;-65
2023/08/28 06:23:24;;;;;;;;;;;;;;;28.39;46.79;99393.66;5098178;28;19943;-65
2023/08/28 06:25:49;;;;;;;;;;;;;;;28.41;44.48;99395.00;5098637;28;19927;-65
2023/08/28 06:28:15;;;;;;;;;;;;;;;28.40;44.56;99396.09;5100701;28;20029;-66
2023/08/28 06:30:40;;;;;;;;;;;;;;;28.54;45.75;99397.03;5102485;28;19922;-65
2023/08/28 06:33:05;;;;;;;;;;;;;;;28.69;43.93;99395.25;5102197;28;20213;-65
2023/08/28 06:35:32;;;;;;;;;;;;;;;28.87;43.90;99384.44;5101364;28;19920;-65
2023/08/28 06:37:57;;;;;;;;;;;;;;;28.56;44.30;99388.56;5101614;28;20160;-65
2023/08/28 06:40:22;;;;;;;;;;;;;;;28.38;45.24;99383.88;5102548;28;20243;-65
2023/08/28 06:42:48;;;;;;;;;;;;;;;28.52;44.80;99385.63;5101906;28;20114;-65
2023/08/28 06:45:13;;;;;;;;;;;;;;;28.78;44.74;99382.59;5102399;28;19920;-65
2023/08/28 06:47:38;;;;;;;;;;;;;;;28.92;44.90;99380.84;5102258;28;19927;-65
2023/08/28 06:50:04;;;;;;;;;;;;;;;28.76;43.59;99391.06;5101589;28;19926;-65
2023/08/28 06:52:29;;;;;;;;;;;;;;;28.95;43.59;99388.44;5101958;28;19924;-65
2023/08/28 06:54:54;;;;;;;;;;;;;;;29.08;42.77;99378.72;5102121;28;20094;-65
2023/08/28 06:57:19;;;;;;;;;;;;;;;28.57;44.09;99374.66;5102083;28;19920;-65
2023/08/28 06:59:45;;;;;;;;;;;;;;;28.80;43.33;99374.94;5101492;28;20303;-65
2023/08/28 07:02:10;;;;;;;;;;;;;;;28.43;43.75;99373.72;5101928;28;19991;-65
2023/08/28 07:04:35;;;;;;;;;;;;;;;28.46;44.04;99375.06;5100627;28;19927;-65
2023/08/28 07:07:00;;;;;;;;;;;;;;;28.75;43.19;99361.38;5101646;28;19988;-65
2023/08/28 07:09:26;;;;;;;;;;;;;;;29.00;42.16;99365.75;5101256;28;20101;-65
2023/08/28 07:11:51;;;;;;;;;;;;;;;29.14;41.73;99353.84;5101225;28;19920;-65
2023/08/28 07:14:16;;;;;;;;;;;;;;;29.16;41.30;99357.09;5101200;28;19968;-65
2023/08/28 07:16:41;;;;;;;;;;;;;;;29.43;41.13;99355.66;5101393;28;19983;-65
2023/08/28 07:19:07;;;;;;;;;;;;;;;29.73;40.41;99359.84;5101834;28;19916;-65
2023/08/28 07:21:32;;;;;;;;;;;;;;;29.99;39.69;99363.75;5101135;28;19920;-66
2023/08/28 07:23:58;;;;;;;;;;;;;;;29.52;40.81;99373.00;5101457;28;19916;-65
2023/08/28 07:26:23;;;;;;;;;;;;;;;28.99;42.00;99375.03;5101380;28;20205;-65
2023/08/28 07:28:48;;;;;;;;;;;;;;;29.29;41.31;99377.38;5101146;28;20290;-65
2023/08/28 07:31:14;;;;;;;;;;;;;;;29.70;41.19;99377.63;5101176;28;19987;-65
2023/08/28 07:33:39;;;;;;;;;;;;;;;29.70;40.44;99374.88;5100695;28;19920;-65
2023/08/28 07:36:05;;;;;;;;;;;;;;;29.73;40.13;99382.47;5100842;28;19920;-65
2023/08/28 07:38:30;;;;;;;;;;;;;;;29.86;39.61;99387.19;5100259;28;20133;-65
2023/08/28 07:40:55;;;;;;;;;;;;;;;30.11;39.06;99391.44;5100151;28;19920;-64
2023/08/28 07:43:20;;;;;;;;;;;;;;;30.34;38.22;99389.69;5100758;28;20113;-65
2023/08/28 07:45:46;;;;;;;;;;;;;;;30.61;37.16;99394.41;5099973;28;19920;-65
2023/08/28 07:48:11;;;;;;;;;;;;;;;30.73;38.86;99389.25;5100358;28;19920;-65
2023/08/28 07:50:37;;;;;;;;;;;;;;;30.65;39.59;99383.69;5101220;28;19924;-65
2023/08/28 07:53:03;;;;;;;;;;;;;;;30.40;38.77;99377.56;5100699;28;19920;-65
2023/08/28 07:55:28;;;;;;;;;;;;;;;30.23;39.43;99382.81;5100452;28;20303;-65
2023/08/28 07:57:53;;;;;;;;;;;;;;;30.23;39.27;99382.00;5100678;28;20223;-65
2023/08/28 08:00:21;;;;;;;;;;;;;;;30.14;39.00;99377.19;5100719;28;19947;-65
2023/08/28 08:02:47;;;;;;;;;;;;;;;30.29;38.36;99389.78;5100310;28;20238;-65
2023/08/28 08:05:13;;;;;;;;;;;;;;;30.59;38.88;99387.63;5099961;28;19923;-65
2023/08/28 08:07:39;;;;;;;;;;;;;;;30.12;40.18;99384.88;5100594;28;19943;-65
2023/08/28 08:10:05;;;;;;;;;;;;;;;30.57;39.95;99382.44;5100026;28;19920;-65
2023/08/28 08:12:31;;;;;;;;;;;;;;;30.73;39.27;99385.72;5100629;28;19941;-64
2023/08/28 08:14:56;;;;;;;;;;;;;;;30.50;38.99;99384.75;5100142;28;20217;-65
2023/08/28 08:17:21;;;;;;;;;;;;;;;30.67;38.51;99381.47;5100418;28;19919;-65
2023/08/28 08:19:46;;;;;;;;;;;;;;;30.92;38.63;99372.75;5100008;28;19920;-65
2023/08/28 08:22:12;;;;;;;;;;;;;;;31.09;38.30;99372.13;5100031;28;19920;-65
2023/08/28 08:24:37;;;;;;;;;;;;;;;30.75;39.51;99369.81;5100067;28;19927;-65
2023/08/28 08:27:03;;;;;;;;;;;;;;;30.67;39.40;99360.41;5100298;28;19958;-65
2023/08/28 08:29:28;;;;;;;;;;;;;;;30.76;38.79;99355.03;5099576;28;19919;-65
2023/08/28 08:31:54;;;;;;;;;;;;;;;30.82;38.47;99359.28;5099837;28;19920;-66
2023/08/28 08:34:19;;;;;;;;;;;;;;;30.75;38.87;99358.88;5099665;28;19916;-65
2023/08/28 08:36:44;;;;;;;;;;;;;;;30.88;37.74;99349.06;5099670;28;19924;-65
2023/08/28 08:39:10;;;;;;;;;;;;;;;31.02;37.19;99344.38;5099775;28;19938;-65
2023/08/28 08:41:38;;;;;;;;;;;;;;;30.92;36.51;99348.16;5099247;28;20513;-66
2023/08/28 08:44:03;;;;;;;;;;;;;;;30.84;37.71;99348.88;5098930;28;19980;-65
2023/08/28 08:46:29;;;;;;;;;;;;;;;30.54;38.47;99353.00;5099333;28;19920;-65
2023/08/28 08:48:56;;;;;;;;;;;;;;;30.67;38.77;99346.75;5099481;28;19924;-65
2023/08/28 08:51:24;;;;;;;;;;;;;;;30.86;37.18;99343.91;5099552;28;19924;-65
2023/08/28 08:53:50;;;;;;;;;;;;;;;30.67;37.14;99340.47;5100330;28;20392;-65
2023/08/28 08:56:17;;;;;;;;;;;;;;;30.82;37.40;99326.50;5099743;28;20151;-66
2023/08/28 08:58:43;;;;;;;;;;;;;;;31.11;36.64;99329.69;5099298;28;19947;-65
2023/08/28 09:01:09;;;;;;;;;;;;;;;31.18;35.97;99323.81;5099273;28;19920;-65
2023/08/28 09:03:35;;;;;;;;;;;;;;;31.01;34.94;99321.69;5098710;28;20129;-66
2023/08/28 09:06:01;;;;;;;;;;;;;;;30.89;36.18;99321.41;5098990;28;19927;-66
2023/08/28 09:08:28;;;;;;;;;;;;;;;30.92;35.85;99317.25;5099699;28;20113;-65
2023/08/28 09:10:57;;;;;;;;;;;;;;;30.91;35.36;99315.66;5099642;28;19920;-66
2023/08/28 09:13:22;;;;;;;;;;;;;;;31.00;36.17;99309.16;5098996;28;19948;-65
2023/08/28 09:15:47;;;;;;;;;;;;;;;30.82;36.28;99304.63;5099101;28;19920;-66
2023/08/28 09:18:13;;;;;;;;;;;;;;;31.01;36.77;99309.94;5098941;28;19971;-65
2023/08/28 09:20:38;;;;;;;;;;;;;;;31.06;35.71;99304.38;5099143;28;19920;-65
2023/08/28 09:23:03;;;;;;;;;;;;;;;30.98;35.40;99303.19;5098927;28;19920;-65
2023/08/28 09:25:29;;;;;;;;;;;;;;;30.90;35.39;99298.44;5099334;28;19927;-65
2023/08/28 09:27:55;;;;;;;;;;;;;;;31.04;37.00;99282.81;5099121;28;19942;-65
2023/08/28 09:30:27;;;;;;;;;;;;;;;31.09;36.33;99282.69;5099264;28;19920;-66
2023/08/28 09:32:53;;;;;;;;;;;;;;;30.97;36.74;99278.88;5098999;28;19924;-65
2023/08/28 09:35:21;;;;;;;;;;;;;;;30.42;38.40;99287.13;5098873;28;20375;-66
2023/08/28 09:37:59;;;;;;;;;;;;;;;30.36;37.68;99272.75;5080969;28;19939;-65
2023/08/28 09:40:25;;;;;;;;;;;;;;;30.47;37.14;99276.91;5098366;28;19927;-65
2023/08/28 09:42:50;;;;;;;;;;;;;;;30.36;37.84;99264.56;5098363;28;19942;-66
2023/08/28 09:45:16;;;;;;;;;;;;;;;30.39;38.09;99272.16;5098967;28;19957;-65
2023/08/28 09:47:41;;;;;;;;;;;;;;;30.53;38.32;99279.53;5098996;28;19924;-66
2023/08/28 09:50:07;;;;;;;;;;;;;;;30.48;38.85;99262.13;5098526;28;20011;-65
2023/08/28 09:52:33;;;;;;;;;;;;;;;30.41;39.92;99264.47;5099178;28;19959;-65
2023/08/28 09:55:05;;;;;;;;;;;;;;;30.42;40.79;99252.41;5098675;28;20205;-65
2023/08/28 09:57:31;;;;;;;;;;;;;;;30.49;40.85;99250.09;5098805;28;19920;-65
2023/08/28 09:59:56;;;;;;;;;;;;;;;30.47;40.63;99248.78;5098435;28;19958;-65
2023/08/28 10:02:21;;;;;;;;;;;;;;;30.47;40.83;99252.31;5099029;28;19920;-65
2023/08/28 10:04:49;;;;;;;;;;;;;;;30.37;40.61;99252.53;5102062;28;19919;-65
2023/08/28 10:07:14;;;;;;;;;;;;;;;30.46;41.68;99241.69;5103013;28;19927;-65
2023/08/28 10:09:43;;;;;;;;;;;;;;;30.50;40.85;99242.69;5102592;28;19920;-65
2023/08/28 10:12:09;;;;;;;;;;;;;;;30.43;40.99;99237.66;5102384;28;19951;-65
2023/08/28 10:14:35;;;;;;;;;;;;;;;30.46;41.15;99237.03;5102571;28;19958;-65
2023/08/28 10:17:03;;;;;;;;;;;;;;;30.46;39.53;99233.50;5102110;28;19930;-66
2023/08/28 10:19:37;;;;;;;;;;;;;;;30.48;39.97;99232.06;5102417;28;19916;-66
2023/08/28 10:22:06;;;;;;;;;;;;;;;30.46;40.75;99239.75;5102396;28;19924;-66
2023/08/28 10:24:32;;;;;;;;;;;;;;;30.28;40.49;99231.69;5102389;28;19991;-65
2023/08/28 10:26:58;;;;;;;;;;;;;;;30.33;40.27;99234.31;5102852;28;19916;-65
2023/08/28 10:29:24;;;;;;;;;;;;;;;30.39;40.77;99228.44;5102642;28;20135;-66
2023/08/28 10:31:50;;;;;;;;;;;;;;;30.44;39.74;99225.59;5102338;28;19973;-65
2023/08/28 10:34:16;;;;;;;;;;;;;;;30.41;40.17;99218.03;5102262;28;19983;-65
2023/08/28 10:36:43;;;;;;;;;;;;;;;30.49;39.64;99224.69;5101851;28;19959;-65
2023/08/28 10:39:11;;;;;;;;;;;;;;;30.50;39.16;99223.56;5102147;28;19916;-66
2023/08/28 10:41:37;;;;;;;;;;;;;;;30.48;39.39;99223.06;5102371;28;19983;-65
2023/08/28 10:44:03;;;;;;;;;;;;;;;30.57;39.34;99213.03;5102138;28;19980;-65
2023/08/28 10:46:29;;;;;;;;;;;;;;;30.65;39.74;99222.47;5102240;28;19926;-66
2023/08/28 10:48:58;;;;;;;;;;;;;;;30.71;38.31;99218.50;5102127;28;19920;-65
2023/08/28 10:51:31;;;;;;;;;;;;;;;30.62;37.92;99221.16;5101625;28;19930;-65
2023/08/28 10:53:59;;;;;;;;;;;;;;;30.83;36.70;99212.50;5102288;28;19920;-65
2023/08/28 10:56:24;;;;;;;;;;;;;;;30.92;35.67;99203.25;5102004;28;19958;-65
2023/08/28 10:58:49;;;;;;;;;;;;;;;30.99;36.73;99197.34;5102144;28;19920;-65
2023/08/28 11:01:16;;;;;;;;;;;;;;;30.96;36.10;99197.97;5101736;28;20132;-65
2023/08/28 11:03:50;;;;;;;;;;;;;;;31.07;34.97;99202.09;5101368;28;19926;-65
2023/08/28 11:06:34;;;;;;;;;;;;;;;31.17;33.85;99201.06;5101572;28;19943;-65
2023/08/28 11:09:19;;;;;;;;;;;;;;;31.15;33.17;99195.09;5101551;28;19920;-66
2023/08/28 11:11:44;;;;;;;;;;;;;;;31.18;31.83;99197.19;5101226;28;20225;-65
2023/08/28 11:14:13;;;;;;;;;;;;;;;31.23;30.57;99191.63;5101163;28;19923;-65
2023/08/28 11:16:41;;;;;;;;;;;;;;;31.13;30.83;99198.91;5100577;28;19927;-66
2023/08/28 11:19:06;;;;;;;;;;;;;;;31.20;32.15;99193.03;5101395;28;19982;-65
2023/08/28 11:21:44;;;;;;;;;;;;;;;31.28;30.09;99189.59;5100964;28;20097;-65
2023/08/28 11:24:17;;;;;;;;;;;;;;;31.30;28.81;99189.28;5101745;28;19915;-65
2023/08/28 11:26:43;;;;;;;;;;;;;;;31.35;25.48;99178.19;5100969;28;19920;-65
2023/08/28 11:29:24;;;;;;;;;;;;;;;31.38;23.69;99172.91;5101044;28;19953;-65
2023/08/28 11:31:50;;;;;;;;;;;;;;;31.44;22.98;99173.59;5101582;28;20143;-65
2023/08/28 11:34:15;;;;;;;;;;;;;;;31.51;24.76;99175.88;5101106;28;19916;-65
2023/08/28 11:36:40;;;;;;;;;;;;;;;31.46;23.44;99165.06;5100888;28;19927;-65
2023/08/28 11:39:05;;;;;;;;;;;;;;;31.51;23.02;99159.47;5101157;28;19946;-65
2023/08/28 11:41:31;;;;;;;;;;;;;;;31.69;26.95;99167.47;5101336;28;19954;-65
2023/08/28 11:43:56;;;;;;;;;;;;;;;31.59;25.08;99164.97;5101246;28;19916;-65
2023/08/28 11:46:24;;;;;;;;;;;;;;;31.62;23.35;99155.31;5100982;28;20169;-64
2023/08/28 11:48:50;;;;;;;;;;;;;;;31.62;25.20;99149.84;5100964;28;19954;-65
2023/08/28 11:51:15;;;;;;;;;;;;;;;31.62;24.73;99152.59;5100752;28;20091;-65
2023/08/28 11:53:41;;;;;;;;;;;;;;;31.65;24.59;99149.22;5101110;28;19920;-65
2023/08/28 11:56:10;;;;;;;;;;;;;;;31.69;26.24;99142.00;5100687;28;19920;-65
2023/08/28 11:58:38;;;;;;;;;;;;;;;31.72;25.49;99135.91;5100818;28;20122;-65
2023/08/28 12:01:08;;;;;;;;;;;;;;;31.67;25.40;99127.81;5100510;28;19920;-65
2023/08/28 12:03:34;;;;;;;;;;;;;;;31.69;26.28;99125.56;5100293;28;19958;-65
2023/08/28 12:06:09;;;;;;;;;;;;;;;31.77;27.84;99127.56;5100526;28;19923;-66
2023/08/28 12:08:38;;;;;;;;;;;;;;;31.85;27.51;99124.06;5100256;28;19983;-65
2023/08/28 12:11:05;;;;;;;;;;;;;;;31.93;26.44;99117.78;5100334;28;19920;-65
2023/08/28 12:13:32;;;;;;;;;;;;;;;31.96;25.65;99116.34;5099563;28;19990;-65
2023/08/28 12:16:11;;;;;;;;;;;;;;;32.00;25.67;99103.63;5100283;28;20217;-65
2023/08/28 12:18:43;;;;;;;;;;;;;;;32.01;25.11;99106.06;5099961;28;19920;-66
2023/08/28 12:21:09;;;;;;;;;;;;;;;32.11;24.72;99101.41;5100421;28;19947;-65
2023/08/28 12:23:43;;;;;;;;;;;;;;;32.10;26.19;99095.13;5099911;28;19927;-65
2023/08/28 12:26:09;;;;;;;;;;;;;;;32.15;26.00;99088.69;5099176;28;19926;-65
2023/08/28 12:28:34;;;;;;;;;;;;;;;32.00;27.09;99082.53;5100573;28;19920;-64
2023/08/28 12:30:59;;;;;;;;;;;;;;;32.04;29.54;99079.97;5100838;28;19943;-65
2023/08/28 12:33:24;;;;;;;;;;;;;;;32.00;29.61;99079.00;5099989;28;19926;-66
2023/08/28 12:35:52;;;;;;;;;;;;;;;32.13;28.94;99082.72;5099450;28;19973;-65
2023/08/28 12:38:17;;;;;;;;;;;;;;;32.19;29.21;99078.69;5100374;28;19985;-65
2023/08/28 12:40:44;;;;;;;;;;;;;;;32.17;29.04;99070.78;5099964;28;19987;-65
2023/08/28 12:43:10;;;;;;;;;;;;;;;32.08;28.21;99064.50;5100263;28;19927;-65